Sherwood Valley Rancheria, California
Current Conditions -  °F | °C
As of 9:56 PM on Sunday 19 Oct 2014 (Local Time) from KUKI Reporting Station
Overcast Overcast  
Wind Chill: 63°   Ceiling: 3200
Heat Index: 63°   Visibility: 10mi
Dew Point: 55°   Wind: 3mph
Humidity: 75%   Direction: 310°NW
Pressure: 29.88"   Gusts: NA
Location:  39.4588°N, 123.715°W
Report Text: KUKI 200456Z AUTO 31003KT 10SM OVC032 17/13 A2988 RMK AO2 SLP114 T01720128
Loading
Personal Weather Stations






























Interactive Weather Map
Tropical Storm Tracking
New forecast layout! Learn more

10-Day Weather Forecast

Advertisements
Track Severe Weather on mobile